createdAt,value
2022-11-13T00:03:34.338Z,102252.81
2022-11-13T00:07:54.659Z,102245.91
2022-11-13T00:12:15.579Z,102240.31
2022-11-13T00:16:35.634Z,102243.28
2022-11-13T00:21:15.275Z,102237.03
2022-11-13T00:25:35.777Z,102227.38
2022-11-13T00:29:57.165Z,102237.94
2022-11-13T00:34:45.738Z,102239.38
2022-11-13T00:38:58.851Z,102236.00
2022-11-13T00:43:18.956Z,102240.56
2022-11-13T00:47:39.409Z,102233.38
2022-11-13T00:52:00.309Z,102230.84
2022-11-13T00:56:20.997Z,102230.16
2022-11-13T01:00:43.059Z,102228.91
2022-11-13T01:05:03.997Z,102216.84
2022-11-13T01:09:24.588Z,102215.88
2022-11-13T01:13:49.177Z,102208.88
2022-11-13T01:18:09.960Z,102212.25
2022-11-13T01:22:30.675Z,102213.97
2022-11-13T01:26:51.208Z,102212.44
2022-11-13T01:31:16.709Z,102207.13
2022-11-13T01:35:37.188Z,102200.22
2022-11-13T01:39:57.566Z,102199.47
2022-11-13T01:44:19.637Z,102196.31
2022-11-13T01:48:43.929Z,102191.22
2022-11-13T01:53:04.952Z,102199.47
2022-11-13T01:57:25.372Z,102189.59
2022-11-13T02:01:45.506Z,102190.19
2022-11-13T02:06:06.616Z,102190.00
2022-11-13T02:10:27.099Z,102188.53
2022-11-13T02:14:52.541Z,102179.50
2022-11-13T02:19:19.967Z,102174.72
2022-11-13T02:23:50.901Z,102177.97
2022-11-13T02:28:11.062Z,102179.53
2022-11-13T02:32:31.499Z,102177.25
2022-11-13T02:36:51.788Z,102166.84
2022-11-13T02:41:12.240Z,102175.19
2022-11-13T02:45:32.296Z,102167.44
2022-11-13T02:49:52.790Z,102178.13
2022-11-13T02:54:16.697Z,102174.63
2022-11-13T02:58:38.124Z,102165.78
2022-11-13T03:02:58.366Z,102170.19
2022-11-13T03:07:19.472Z,102167.47
2022-11-13T03:11:39.869Z,102174.25
2022-11-13T03:16:14.622Z,102175.91
2022-11-13T03:20:40.456Z,102169.03
2022-11-13T03:25:00.842Z,102175.09
2022-11-13T03:29:22.411Z,102183.06
2022-11-13T03:33:42.928Z,102176.75
2022-11-13T03:38:03.213Z,102171.44
2022-11-13T03:42:23.451Z,102178.28
2022-11-13T03:46:43.528Z,102174.97
2022-11-13T03:51:04.658Z,102176.47
2022-11-13T03:55:25.008Z,102165.09
2022-11-13T03:59:45.578Z,102164.50
2022-11-13T04:04:05.886Z,102174.03
2022-11-13T04:08:26.813Z,102180.94
2022-11-13T04:12:47.281Z,102179.47
2022-11-13T04:17:08.165Z,102173.19
2022-11-13T04:21:28.786Z,102184.59
2022-11-13T04:25:49.147Z,102190.78
2022-11-13T04:30:09.783Z,102189.78
2022-11-13T04:34:30.453Z,102195.84
2022-11-13T04:38:50.645Z,102197.69
2022-11-13T04:43:11.785Z,102194.91
2022-11-13T04:47:32.155Z,102189.13
2022-11-13T04:51:52.653Z,102198.91
2022-11-13T04:56:12.792Z,102197.13
2022-11-13T05:00:33.340Z,102202.38
2022-11-13T05:04:53.389Z,102200.53
2022-11-13T05:09:14.131Z,102211.97
2022-11-13T05:13:36.447Z,102212.09
2022-11-13T05:17:57.460Z,102210.16
2022-11-13T05:22:17.759Z,102208.56
2022-11-13T05:26:40.047Z,102210.34
2022-11-13T05:31:26.787Z,102221.78
2022-11-13T05:35:47.528Z,102219.09
2022-11-13T05:40:08.190Z,102222.69
2022-11-13T05:44:28.565Z,102229.63
2022-11-13T05:48:53.723Z,102225.69
2022-11-13T05:53:14.460Z,102217.44
2022-11-13T05:57:34.552Z,102210.81
2022-11-13T06:01:55.296Z,102198.50
2022-11-13T06:06:18.519Z,102196.44
2022-11-13T06:10:38.800Z,102196.97
2022-11-13T06:14:58.683Z,102192.75
2022-11-13T06:19:19.350Z,102196.72
2022-11-13T06:23:40.489Z,102196.56
2022-11-13T06:28:01.156Z,102202.50
2022-11-13T06:32:21.880Z,102199.44
2022-11-13T06:36:42.475Z,102199.59
2022-11-13T06:41:04.071Z,102204.91
2022-11-13T06:45:24.614Z,102221.69
2022-11-13T06:49:44.775Z,102224.78
2022-11-13T06:54:05.647Z,102220.56
2022-11-13T06:58:26.263Z,102224.66
2022-11-13T07:02:50.166Z,102225.38
2022-11-13T07:07:10.694Z,102225.47
2022-11-13T07:11:31.444Z,102220.06
2022-11-13T07:15:51.428Z,102211.63
2022-11-13T07:20:12.137Z,102202.13
2022-11-13T07:24:32.316Z,102219.41
2022-11-13T07:28:52.834Z,102222.09
2022-11-13T07:33:13.593Z,102219.50
2022-11-13T07:37:34.193Z,102211.00
2022-11-13T07:41:54.353Z,102203.47
2022-11-13T07:46:14.950Z,102209.19
2022-11-13T07:50:37.002Z,102196.88
2022-11-13T07:54:57.405Z,102198.09
2022-11-13T07:59:17.803Z,102202.03
2022-11-13T08:03:38.425Z,102196.88
2022-11-13T08:07:58.917Z,102189.84
2022-11-13T08:12:19.282Z,102192.16
2022-11-13T08:16:39.479Z,102194.34
2022-11-13T08:21:02.566Z,102202.59
2022-11-13T08:25:23.072Z,102194.72
2022-11-13T08:29:43.646Z,102193.78
2022-11-13T08:34:03.710Z,102199.72
2022-11-13T08:38:27.218Z,102192.22
2022-11-13T08:42:47.745Z,102194.28
2022-11-13T08:47:08.774Z,102183.00
2022-11-13T08:51:29.165Z,102195.94
2022-11-13T08:55:49.954Z,102203.06
2022-11-13T09:00:11.173Z,102194.41
2022-11-13T09:04:31.772Z,102191.38
2022-11-13T09:08:51.783Z,102180.50
2022-11-13T09:13:12.572Z,102180.34
2022-11-13T09:17:32.891Z,102173.31
2022-11-13T09:21:53.319Z,102169.22
2022-11-13T09:26:13.402Z,102174.03
2022-11-13T09:30:34.264Z,102181.19
2022-11-13T09:34:54.721Z,102180.25
2022-11-13T09:39:15.409Z,102172.97
2022-11-13T09:43:38.613Z,102165.88
2022-11-13T09:48:29.401Z,102160.81
2022-11-13T09:52:51.962Z,102155.53
2022-11-13T09:57:41.239Z,102161.56
2022-11-13T10:02:40.069Z,102153.88
2022-11-13T10:07:12.489Z,102147.72
2022-11-13T10:11:45.405Z,102141.72
2022-11-13T10:16:27.495Z,102132.50
2022-11-13T10:20:55.756Z,102119.69
2022-11-13T10:25:22.396Z,102109.28
2022-11-13T10:29:48.657Z,102120.72
2022-11-13T10:34:11.183Z,102125.22
2022-11-13T10:38:34.742Z,102121.09
2022-11-13T10:43:19.163Z,102119.28
2022-11-13T10:48:03.656Z,102121.84
2022-11-13T10:52:28.165Z,102116.41
2022-11-13T10:57:03.711Z,102110.94
2022-11-13T11:01:24.549Z,102113.47
2022-11-13T11:06:02.737Z,102115.31
2022-11-13T11:10:33.003Z,102103.81
2022-11-13T11:15:01.747Z,102106.09
2022-11-13T11:19:27.171Z,102110.31
2022-11-13T11:23:56.145Z,102098.19
2022-11-13T11:28:25.486Z,102096.31
2022-11-13T11:33:12.957Z,102095.91
2022-11-13T11:37:41.167Z,102084.50
2022-11-13T11:42:13.064Z,102089.88
2022-11-13T11:46:33.834Z,102080.50
2022-11-13T11:51:03.837Z,102070.34
2022-11-13T11:55:47.446Z,102066.81
2022-11-13T12:00:14.945Z,102065.88
2022-11-13T12:04:43.703Z,102069.16
2022-11-13T12:09:24.532Z,102059.53
2022-11-13T12:13:58.191Z,102050.91
2022-11-13T12:18:36.822Z,102050.38
2022-11-13T12:23:14.950Z,102041.97
2022-11-13T12:27:49.889Z,102049.63
2022-11-13T12:32:37.771Z,102040.66
2022-11-13T12:36:59.029Z,102034.63
2022-11-13T12:41:41.619Z,102029.56
2022-11-13T12:46:10.409Z,102038.66
2022-11-13T12:50:32.900Z,102028.00
2022-11-13T12:55:07.828Z,102024.25
2022-11-13T12:59:38.386Z,102031.19
2022-11-13T13:04:15.407Z,102023.16
2022-11-13T13:09:04.163Z,102030.09
2022-11-13T13:13:42.501Z,102017.66
2022-11-13T13:18:06.838Z,102015.88
2022-11-13T13:22:33.898Z,102014.75
2022-11-13T13:26:54.852Z,102014.88
2022-11-13T13:31:31.181Z,102010.50
2022-11-13T13:36:22.373Z,102016.50
2022-11-13T13:41:02.106Z,102015.72
2022-11-13T13:45:34.379Z,102012.91
2022-11-13T13:49:54.887Z,102013.75
2022-11-13T13:54:19.820Z,102011.78
2022-11-13T13:58:40.719Z,102002.41
2022-11-13T14:03:02.850Z,102014.69
2022-11-13T14:07:25.849Z,102001.22
2022-11-13T14:11:47.915Z,102002.34
2022-11-13T14:16:08.194Z,102004.34
2022-11-13T14:20:28.583Z,102009.97
2022-11-13T14:24:56.497Z,102011.72
2022-11-13T14:29:34.921Z,102010.22
2022-11-13T14:33:54.986Z,102010.81
2022-11-13T14:38:49.024Z,102006.41
2022-11-13T14:43:23.848Z,102005.25
2022-11-13T14:47:44.431Z,102008.34
2022-11-13T14:52:07.041Z,101994.56
2022-11-13T14:56:38.223Z,101998.09
2022-11-13T15:01:11.628Z,101999.81
2022-11-13T15:05:33.046Z,101994.41
2022-11-13T15:09:53.782Z,101992.00
2022-11-13T15:14:18.513Z,101990.88
2022-11-13T15:18:46.732Z,101984.00
2022-11-13T15:23:11.669Z,101978.91
2022-11-13T15:27:31.897Z,101984.28
2022-11-13T15:31:52.118Z,101985.91
2022-11-13T15:36:12.530Z,101975.66
2022-11-13T15:40:32.587Z,101984.28
2022-11-13T15:44:53.032Z,101988.84
2022-11-13T15:49:13.047Z,101982.59
2022-11-13T15:53:33.550Z,101999.59
2022-11-13T15:57:55.107Z,101991.56
2022-11-13T16:02:16.298Z,101984.63
2022-11-13T16:06:36.784Z,101984.06
2022-11-13T16:10:57.823Z,101994.41
2022-11-13T16:15:18.203Z,101998.72
2022-11-13T16:19:39.752Z,101999.69
2022-11-13T16:23:59.882Z,102004.09
2022-11-13T16:28:20.362Z,101995.97
2022-11-13T16:32:40.353Z,101999.50
2022-11-13T16:37:00.710Z,102015.78
2022-11-13T16:41:20.951Z,102006.47
2022-11-13T16:45:41.680Z,101996.97
2022-11-13T16:50:02.414Z,102010.25
2022-11-13T16:54:23.288Z,102000.72
2022-11-13T16:58:43.789Z,102003.31
2022-11-13T17:03:04.787Z,102006.88
2022-11-13T17:07:25.193Z,102005.38
2022-11-13T17:11:45.903Z,102012.47
2022-11-13T17:16:06.067Z,102003.69
2022-11-13T17:20:26.564Z,102003.66
2022-11-13T17:24:46.856Z,102004.84
2022-11-13T17:29:07.385Z,102010.97
2022-11-13T17:33:28.118Z,102015.56
2022-11-13T17:37:48.711Z,102016.44
2022-11-13T17:42:09.205Z,102010.22
2022-11-13T17:46:30.216Z,102010.28
2022-11-13T17:50:57.850Z,102008.53
2022-11-13T17:55:18.517Z,102002.50
2022-11-13T17:59:38.919Z,101992.75
2022-11-13T18:04:00.175Z,101984.78
2022-11-13T18:08:20.461Z,101983.13
2022-11-13T18:12:40.944Z,101980.50
2022-11-13T18:17:00.928Z,101975.72
2022-11-13T18:21:28.780Z,101963.59
2022-11-13T18:25:49.239Z,101976.34
2022-11-13T18:30:10.499Z,101980.16
2022-11-13T18:34:31.068Z,101975.56
2022-11-13T18:38:51.225Z,101966.59
2022-11-13T18:43:11.400Z,101971.75
2022-11-13T18:47:31.846Z,101972.88
2022-11-13T18:51:52.116Z,101977.09
2022-11-13T18:56:17.884Z,101975.13
2022-11-13T19:00:38.377Z,101976.44
2022-11-13T19:04:58.902Z,101989.94
2022-11-13T19:09:19.054Z,101986.53
2022-11-13T19:13:41.334Z,102003.16
2022-11-13T19:18:01.547Z,101998.38
2022-11-13T19:22:21.971Z,102001.22
2022-11-13T19:26:43.141Z,102005.81
2022-11-13T19:31:08.323Z,102008.13
2022-11-13T19:35:28.852Z,102014.00
2022-11-13T19:39:49.527Z,102014.94
2022-11-13T19:44:09.921Z,102004.50
2022-11-13T19:48:31.045Z,102009.00
2022-11-13T19:52:51.421Z,102015.59
2022-11-13T19:57:12.290Z,102015.28
2022-11-13T20:01:32.943Z,102015.91
2022-11-13T20:05:56.078Z,102021.56
2022-11-13T20:10:17.379Z,102020.66
2022-11-13T20:14:38.648Z,102022.06
2022-11-13T20:18:59.321Z,102013.53
2022-11-13T20:23:19.671Z,102000.22
2022-11-13T20:27:41.861Z,102004.03
2022-11-13T20:32:07.056Z,102002.31
2022-11-13T20:36:27.155Z,101997.03
2022-11-13T20:40:47.561Z,101995.19
2022-11-13T20:45:08.417Z,101989.06
2022-11-13T20:49:28.995Z,101988.97
2022-11-13T20:53:49.503Z,101991.41
2022-11-13T20:58:10.030Z,101983.28
2022-11-13T21:02:30.135Z,101980.72
2022-11-13T21:06:52.305Z,101974.03
2022-11-13T21:11:18.964Z,101979.38
2022-11-13T21:15:39.859Z,101983.22
2022-11-13T21:20:00.033Z,101985.75
2022-11-13T21:24:20.457Z,101981.75
2022-11-13T21:28:41.248Z,101991.13
2022-11-13T21:33:01.739Z,101981.38
2022-11-13T21:37:22.109Z,101975.94
2022-11-13T21:41:42.786Z,101977.06
2022-11-13T21:46:04.714Z,101986.38
2022-11-13T21:50:25.014Z,101992.81
2022-11-13T21:54:45.114Z,102000.00
2022-11-13T21:59:06.861Z,101994.59
2022-11-13T22:03:28.315Z,101995.66
2022-11-13T22:07:48.606Z,101991.84
2022-11-13T22:12:09.952Z,101985.00
2022-11-13T22:16:32.380Z,101974.22
2022-11-13T22:20:52.542Z,101973.47
2022-11-13T22:25:13.171Z,101977.81
2022-11-13T22:29:33.480Z,101973.25
2022-11-13T22:33:55.469Z,101966.41
2022-11-13T22:38:16.731Z,101964.75
2022-11-13T22:42:37.517Z,101956.63
2022-11-13T22:46:58.240Z,101949.53
2022-11-13T22:51:21.968Z,101955.91
2022-11-13T22:55:41.977Z,101954.44
2022-11-13T23:00:04.858Z,101950.78
2022-11-13T23:04:24.968Z,101948.44
2022-11-13T23:08:45.552Z,101942.28
2022-11-13T23:13:05.684Z,101930.81
2022-11-13T23:17:26.236Z,101924.03
2022-11-13T23:21:46.705Z,101925.09
2022-11-13T23:26:08.299Z,101928.13
2022-11-13T23:30:28.982Z,101923.13
2022-11-13T23:35:04.443Z,101918.81
2022-11-13T23:39:24.353Z,101921.75
2022-11-13T23:44:07.553Z,101926.78
2022-11-13T23:48:25.414Z,101912.63
2022-11-13T23:52:45.760Z,101911.13
2022-11-13T23:57:05.891Z,101915.59
